AAL3014 KSMF-KPHX
Flight info
| Callsign | AAL3014 |
|---|---|
| Flight time | N/A |
| Altitude | 37000 |
| Route | SCTWN4 SHUFL Q13 WOTRO BRUSR1 |
| Aircraft | B38M/M-SDE1FGHILORVWXY/HB1 |
Departure
| Time | N/A |
|---|---|
| Airport | Sacramento International Airport (KSMF) |
Arrival
| Time | 2026-05-08 03:59 |
|---|---|
| Airport | Phoenix Sky Harbor International Airport (KPHX) |
| Time | Latitude | Longitude | Altitude | Speed | Heading |
|---|---|---|---|---|---|
| 2026-05-08 03:34 | 34.90984 | -112.85113 | 25098 ft | 396 kts | 120° |
| 2026-05-08 03:34 | 34.89446 | -112.82349 | 24697 ft | 394 kts | 120° |
| 2026-05-08 03:34 | 34.87915 | -112.79598 | 24317 ft | 391 kts | 120° |
| 2026-05-08 03:34 | 34.86398 | -112.76877 | 24007 ft | 387 kts | 120° |
| 2026-05-08 03:35 | 34.84897 | -112.74184 | 23936 ft | 387 kts | 120° |
| 2026-05-08 03:35 | 34.83356 | -112.71424 | 23920 ft | 400 kts | 120° |
| 2026-05-08 03:35 | 34.81781 | -112.68603 | 23916 ft | 406 kts | 121° |
| 2026-05-08 03:36 | 34.78475 | -112.62693 | 23915 ft | 408 kts | 121° |
| 2026-05-08 03:36 | 34.76880 | -112.59843 | 23921 ft | 408 kts | 121° |
| 2026-05-08 03:36 | 34.75283 | -112.56994 | 23921 ft | 407 kts | 121° |
| 2026-05-08 03:36 | 34.73693 | -112.54158 | 23920 ft | 408 kts | 121° |
| 2026-05-08 03:37 | 34.72095 | -112.51310 | 23924 ft | 408 kts | 121° |
| 2026-05-08 03:37 | 34.70433 | -112.48518 | 24051 ft | 410 kts | 129° |
| 2026-05-08 03:37 | 34.68282 | -112.46214 | 23938 ft | 414 kts | 137° |
| 2026-05-08 03:37 | 34.66063 | -112.43989 | 23837 ft | 413 kts | 137° |
| 2026-05-08 03:38 | 34.63843 | -112.41780 | 23722 ft | 413 kts | 137° |
| 2026-05-08 03:38 | 34.61614 | -112.39582 | 23600 ft | 412 kts | 137° |
| 2026-05-08 03:38 | 34.59387 | -112.37399 | 23463 ft | 411 kts | 137° |
| 2026-05-08 03:38 | 34.57162 | -112.35224 | 23323 ft | 411 kts | 137° |
| 2026-05-08 03:39 | 34.54939 | -112.33054 | 23173 ft | 410 kts | 137° |
| 2026-05-08 03:39 | 34.52719 | -112.30889 | 23023 ft | 409 kts | 137° |
| 2026-05-08 03:39 | 34.50507 | -112.28732 | 22863 ft | 407 kts | 137° |
| 2026-05-08 03:39 | 34.48334 | -112.26616 | 22715 ft | 395 kts | 137° |
| 2026-05-08 03:40 | 34.46193 | -112.24546 | 22582 ft | 394 kts | 140° |
| 2026-05-08 03:40 | 34.43770 | -112.22976 | 22337 ft | 399 kts | 159° |
| 2026-05-08 03:40 | 34.41064 | -112.22172 | 22229 ft | 402 kts | 164° |
| 2026-05-08 03:40 | 34.38345 | -112.21425 | 21899 ft | 400 kts | 164° |
| 2026-05-08 03:41 | 34.35631 | -112.20699 | 21386 ft | 400 kts | 165° |
| 2026-05-08 03:41 | 34.32916 | -112.19988 | 20887 ft | 399 kts | 165° |
| 2026-05-08 03:41 | 34.30198 | -112.19281 | 20425 ft | 398 kts | 165° |
| 2026-05-08 03:41 | 34.27499 | -112.18582 | 19959 ft | 397 kts | 165° |
| 2026-05-08 03:42 | 34.24793 | -112.17882 | 19479 ft | 396 kts | 165° |
| 2026-05-08 03:42 | 34.22129 | -112.17194 | 19024 ft | 386 kts | 165° |
| 2026-05-08 03:42 | 34.19534 | -112.16524 | 18570 ft | 376 kts | 165° |
| 2026-05-08 03:42 | 34.16991 | -112.15867 | 18111 ft | 371 kts | 165° |
| 2026-05-08 03:43 | 34.14486 | -112.15221 | 17630 ft | 363 kts | 165° |
| 2026-05-08 03:43 | 34.12061 | -112.14596 | 17279 ft | 350 kts | 165° |
| 2026-05-08 03:43 | 34.09712 | -112.13991 | 16908 ft | 341 kts | 165° |
| 2026-05-08 03:43 | 34.07454 | -112.13214 | 16344 ft | 338 kts | 157° |
| 2026-05-08 03:44 | 34.05247 | -112.12275 | 15887 ft | 335 kts | 158° |
| 2026-05-08 03:44 | 34.03052 | -112.11368 | 15412 ft | 333 kts | 159° |
| 2026-05-08 03:44 | 34.00865 | -112.10478 | 14929 ft | 331 kts | 159° |
| 2026-05-08 03:44 | 33.98681 | -112.09598 | 14436 ft | 330 kts | 159° |
| 2026-05-08 03:45 | 33.96506 | -112.08727 | 13952 ft | 329 kts | 159° |
| 2026-05-08 03:45 | 33.94348 | -112.07863 | 13439 ft | 325 kts | 160° |
| 2026-05-08 03:45 | 33.92214 | -112.07012 | 12910 ft | 320 kts | 160° |
| 2026-05-08 03:45 | 33.90105 | -112.06169 | 12447 ft | 320 kts | 160° |
| 2026-05-08 03:46 | 33.87996 | -112.05326 | 11956 ft | 318 kts | 160° |
| 2026-05-08 03:46 | 33.85911 | -112.04477 | 11431 ft | 315 kts | 160° |
| 2026-05-08 03:46 | 33.83851 | -112.03640 | 10972 ft | 310 kts | 160° |
| 2026-05-08 03:46 | 33.81828 | -112.02820 | 10522 ft | 304 kts | 161° |
| 2026-05-08 03:47 | 33.79835 | -112.02012 | 10082 ft | 300 kts | 161° |
| 2026-05-08 03:47 | 33.77873 | -112.01217 | 9636 ft | 296 kts | 161° |
| 2026-05-08 03:47 | 33.75912 | -112.00424 | 9173 ft | 299 kts | 162° |
| 2026-05-08 03:47 | 33.73968 | -111.99638 | 8966 ft | 295 kts | 162° |
| 2026-05-08 03:48 | 33.72031 | -111.98855 | 8883 ft | 284 kts | 162° |
| 2026-05-08 03:48 | 33.70177 | -111.98105 | 8851 ft | 280 kts | 162° |
| 2026-05-08 03:48 | 33.68327 | -111.97359 | 8828 ft | 281 kts | 162° |
| 2026-05-08 03:48 | 33.66473 | -111.96611 | 8775 ft | 281 kts | 162° |
| 2026-05-08 03:49 | 33.64617 | -111.95861 | 8615 ft | 282 kts | 162° |
| 2026-05-08 03:49 | 33.62753 | -111.95108 | 8283 ft | 283 kts | 162° |
| 2026-05-08 03:49 | 33.60893 | -111.94357 | 7968 ft | 283 kts | 163° |
| 2026-05-08 03:49 | 33.59029 | -111.93604 | 7674 ft | 282 kts | 163° |
| 2026-05-08 03:50 | 33.57176 | -111.92855 | 7420 ft | 279 kts | 163° |
| 2026-05-08 03:50 | 33.55362 | -111.92122 | 7138 ft | 272 kts | 162° |
| 2026-05-08 03:50 | 33.53758 | -111.90987 | 6812 ft | 269 kts | 134° |
| 2026-05-08 03:50 | 33.52875 | -111.89067 | 6497 ft | 262 kts | 102° |
| 2026-05-08 03:51 | 33.52745 | -111.86947 | 6281 ft | 257 kts | 89° |
| 2026-05-08 03:51 | 33.52711 | -111.84820 | 6048 ft | 255 kts | 90° |
| 2026-05-08 03:51 | 33.52680 | -111.82700 | 5791 ft | 254 kts | 90° |
| 2026-05-08 03:51 | 33.52657 | -111.80588 | 5563 ft | 254 kts | 90° |
| 2026-05-08 03:52 | 33.52636 | -111.78475 | 5341 ft | 253 kts | 90° |
| 2026-05-08 03:52 | 33.52644 | -111.76374 | 5120 ft | 251 kts | 90° |
| 2026-05-08 03:52 | 33.52666 | -111.74309 | 5020 ft | 246 kts | 89° |
| 2026-05-08 03:52 | 33.52581 | -111.72275 | 4986 ft | 244 kts | 107° |
| 2026-05-08 03:53 | 33.51671 | -111.70633 | 4978 ft | 238 kts | 147° |
| 2026-05-08 03:53 | 33.50146 | -111.70074 | 4984 ft | 230 kts | 188° |
| 2026-05-08 03:53 | 33.48651 | -111.70651 | 5029 ft | 227 kts | 209° |
| 2026-05-08 03:53 | 33.47228 | -111.71492 | 5029 ft | 229 kts | 210° |
| 2026-05-08 03:54 | 33.45807 | -111.72347 | 5023 ft | 227 kts | 211° |
| 2026-05-08 03:54 | 33.44691 | -111.73553 | 4974 ft | 210 kts | 241° |
| 2026-05-08 03:54 | 33.44175 | -111.75147 | 4862 ft | 206 kts | 260° |
| 2026-05-08 03:54 | 33.44055 | -111.76849 | 4619 ft | 205 kts | 270° |
| 2026-05-08 03:55 | 33.44050 | -111.78536 | 4381 ft | 203 kts | 271° |
| 2026-05-08 03:55 | 33.44055 | -111.80211 | 4112 ft | 199 kts | 271° |
| 2026-05-08 03:55 | 33.44058 | -111.81844 | 3851 ft | 193 kts | 270° |
| 2026-05-08 03:55 | 33.44061 | -111.83433 | 3604 ft | 188 kts | 271° |
| 2026-05-08 03:56 | 33.44063 | -111.84961 | 3366 ft | 181 kts | 271° |
| 2026-05-08 03:56 | 33.44065 | -111.86405 | 3160 ft | 167 kts | 270° |
| 2026-05-08 03:56 | 33.44066 | -111.87710 | 2948 ft | 147 kts | 271° |
| 2026-05-08 03:56 | 33.44067 | -111.88909 | 2773 ft | 143 kts | 271° |
| 2026-05-08 03:57 | 33.44068 | -111.90089 | 2592 ft | 141 kts | 271° |
| 2026-05-08 03:57 | 33.44070 | -111.91269 | 2419 ft | 142 kts | 271° |
| 2026-05-08 03:57 | 33.44084 | -111.92454 | 2234 ft | 142 kts | 270° |
| 2026-05-08 03:57 | 33.44072 | -111.93644 | 2034 ft | 143 kts | 269° |
| 2026-05-08 03:58 | 33.44085 | -111.94846 | 1859 ft | 146 kts | 270° |
| 2026-05-08 03:58 | 33.44077 | -111.96064 | 1705 ft | 147 kts | 269° |
| 2026-05-08 03:58 | 33.44070 | -111.97304 | 1481 ft | 150 kts | 270° |
| 2026-05-08 03:58 | 33.44085 | -111.98548 | 1281 ft | 149 kts | 269° |
| 2026-05-08 03:59 | 33.44084 | -111.99768 | 1139 ft | 139 kts | 266° |
| 2026-05-08 03:59 | 33.44085 | -112.00718 | 1131 ft | 81 kts | 270° |
| 2026-05-08 03:59 | 33.44090 | -112.01153 | 1134 ft | 26 kts | 268° |
| 2026-05-08 03:59 | 33.44069 | -112.01317 | 1134 ft | 14 kts | 237° |
| 2026-05-08 04:00 | 33.44002 | -112.01404 | 1131 ft | 12 kts | 223° |
| 2026-05-08 04:00 | 33.43940 | -112.01435 | 1120 ft | 11 kts | 181° |
| 2026-05-08 04:00 | 33.43901 | -112.01365 | 1126 ft | 12 kts | 89° |
| 2026-05-08 04:00 | 33.43901 | -112.01251 | 1127 ft | 15 kts | 90° |
| 2026-05-08 04:01 | 33.43901 | -112.01120 | 1127 ft | 17 kts | 89° |
| 2026-05-08 04:01 | 33.43900 | -112.00971 | 1127 ft | 19 kts | 89° |
| 2026-05-08 04:01 | 33.43901 | -112.00806 | 1127 ft | 19 kts | 90° |
| 2026-05-08 04:01 | 33.43901 | -112.00654 | 1127 ft | 19 kts | 90° |
| 2026-05-08 04:02 | 33.43901 | -112.00499 | 1127 ft | 18 kts | 88° |
| 2026-05-08 04:02 | 33.43905 | -112.00347 | 1127 ft | 18 kts | 89° |
| 2026-05-08 04:02 | 33.43905 | -112.00233 | 1127 ft | 9 kts | 90° |
| 2026-05-08 04:02 | 33.43887 | -112.00177 | 1122 ft | 8 kts | 153° |
| 2026-05-08 04:03 | 33.43840 | -112.00172 | 1121 ft | 2 kts | 180° |
| 2026-05-08 04:03 | 33.43837 | -112.00172 | 1122 ft | 0 kts | 180° |